createdAt,value
2023-02-11T00:01:10.361Z,103489.63
2023-02-11T00:03:37.181Z,103479.59
2023-02-11T00:06:06.455Z,103486.81
2023-02-11T00:08:33.076Z,103483.69
2023-02-11T00:10:59.605Z,103483.03
2023-02-11T00:13:26.358Z,103472.53
2023-02-11T00:15:53.719Z,103477.09
2023-02-11T00:18:20.757Z,103476.34
2023-02-11T00:20:47.336Z,103469.50
2023-02-11T00:23:14.132Z,103466.78
2023-02-11T00:25:42.430Z,103454.59
2023-02-11T00:28:09.827Z,103457.91
2023-02-11T00:30:37.036Z,103450.59
2023-02-11T00:33:04.309Z,103449.34
2023-02-11T00:35:30.846Z,103441.28
2023-02-11T00:37:57.457Z,103444.47
2023-02-11T00:40:24.651Z,103433.81
2023-02-11T00:42:51.248Z,103437.94
2023-02-11T00:45:17.846Z,103435.19
2023-02-11T00:47:44.367Z,103435.09
2023-02-11T00:50:10.893Z,103440.00
2023-02-11T00:52:37.492Z,103428.44
2023-02-11T00:55:04.287Z,103431.81
2023-02-11T00:57:30.859Z,103426.38
2023-02-11T00:59:57.368Z,103427.13
2023-02-11T01:02:23.985Z,103425.38
2023-02-11T01:04:50.530Z,103428.66
2023-02-11T01:07:17.112Z,103424.31
2023-02-11T01:09:43.630Z,103433.91
2023-02-11T01:12:10.210Z,103426.84
2023-02-11T01:14:36.761Z,103431.84
2023-02-11T01:17:06.322Z,103432.56
2023-02-11T01:19:32.942Z,103424.56
2023-02-11T01:21:59.805Z,103428.81
2023-02-11T01:24:26.571Z,103432.09
2023-02-11T01:26:53.074Z,103433.78
2023-02-11T01:29:19.690Z,103429.47
2023-02-11T01:31:46.347Z,103436.41
2023-02-11T01:34:13.108Z,103433.22
2023-02-11T01:36:39.689Z,103437.00
2023-02-11T01:39:06.258Z,103439.88
2023-02-11T01:41:32.755Z,103433.16
2023-02-11T01:43:59.390Z,103436.03
2023-02-11T01:46:37.882Z,103445.06
2023-02-11T01:49:14.898Z,103440.19
2023-02-11T01:51:48.078Z,103441.13
2023-02-11T01:54:38.505Z,103436.63
2023-02-11T01:57:25.266Z,103438.97
2023-02-11T02:00:05.184Z,103448.81
2023-02-11T02:02:43.370Z,103447.22
2023-02-11T02:05:24.927Z,103445.63
2023-02-11T02:07:56.372Z,103426.75
2023-02-11T02:10:26.236Z,103427.22
2023-02-11T02:12:52.865Z,103424.78
2023-02-11T02:15:36.774Z,103422.31
2023-02-11T02:18:12.538Z,103425.81
2023-02-11T02:21:10.240Z,103421.84
2023-02-11T02:24:07.389Z,103405.50
2023-02-11T02:26:58.527Z,103393.53
2023-02-11T02:30:02.743Z,103379.34
2023-02-11T02:32:55.358Z,103374.84
2023-02-11T02:35:47.633Z,103385.16
2023-02-11T02:38:24.852Z,103384.59
2023-02-11T02:40:59.422Z,103384.75
2023-02-11T02:43:27.779Z,103380.53
2023-02-11T02:45:54.434Z,103376.50
2023-02-11T02:48:30.144Z,103378.38
2023-02-11T02:51:33.643Z,103382.22
2023-02-11T02:54:02.756Z,103388.56
2023-02-11T02:56:43.436Z,103394.28
2023-02-11T02:59:26.234Z,103387.41
2023-02-11T03:02:15.198Z,103379.03
2023-02-11T03:04:52.854Z,103369.50
2023-02-11T03:07:48.923Z,103363.56
2023-02-11T03:10:20.813Z,103363.75
2023-02-11T03:12:48.720Z,103369.69
2023-02-11T03:15:18.170Z,103371.16
2023-02-11T03:17:47.881Z,103367.16
2023-02-11T03:20:17.532Z,103355.19
2023-02-11T03:22:52.895Z,103349.66
2023-02-11T03:25:20.775Z,103350.06
2023-02-11T03:27:49.352Z,103346.41
2023-02-11T03:30:27.112Z,103346.88
2023-02-11T03:33:19.987Z,103337.59
2023-02-11T03:35:50.775Z,103345.09
2023-02-11T03:38:26.340Z,103336.84
2023-02-11T03:40:55.890Z,103317.97
2023-02-11T03:43:28.246Z,103323.44
2023-02-11T03:45:56.877Z,103319.09
2023-02-11T03:48:32.240Z,103320.59
2023-02-11T03:51:01.653Z,103309.50
2023-02-11T03:53:28.598Z,103308.94
2023-02-11T03:55:58.598Z,103306.44
2023-02-11T03:58:25.168Z,103310.59
2023-02-11T04:00:51.710Z,103304.63
2023-02-11T04:03:19.149Z,103294.94
2023-02-11T04:05:45.692Z,103286.41
2023-02-11T04:08:12.192Z,103284.53
2023-02-11T04:10:38.727Z,103285.50
2023-02-11T04:13:05.251Z,103288.81
2023-02-11T04:15:32.173Z,103291.53
2023-02-11T04:17:58.675Z,103303.81
2023-02-11T04:20:25.199Z,103308.97
2023-02-11T04:22:51.702Z,103308.25
2023-02-11T04:25:18.365Z,103317.81
2023-02-11T04:27:44.920Z,103310.34
2023-02-11T04:30:12.125Z,103295.19
2023-02-11T04:32:38.690Z,103293.50
2023-02-11T04:35:05.902Z,103284.41
2023-02-11T04:37:32.451Z,103284.59
2023-02-11T04:39:58.971Z,103271.72
2023-02-11T04:42:25.459Z,103271.81
2023-02-11T04:44:52.023Z,103284.97
2023-02-11T04:47:18.788Z,103290.47
2023-02-11T04:49:45.393Z,103302.72
2023-02-11T04:52:11.923Z,103297.97
2023-02-11T04:54:38.508Z,103292.72
2023-02-11T04:57:05.011Z,103303.72
2023-02-11T04:59:31.512Z,103303.72
2023-02-11T05:01:58.173Z,103300.16
2023-02-11T05:04:24.966Z,103300.47
2023-02-11T05:06:51.498Z,103303.44
2023-02-11T05:09:18.308Z,103303.53
2023-02-11T05:11:44.891Z,103307.97
2023-02-11T05:14:11.438Z,103307.69
2023-02-11T05:16:38.075Z,103299.22
2023-02-11T05:19:04.896Z,103295.00
2023-02-11T05:21:31.553Z,103285.72
2023-02-11T05:23:58.227Z,103289.03
2023-02-11T05:26:25.180Z,103282.06
2023-02-11T05:28:51.700Z,103285.25
2023-02-11T05:31:18.543Z,103282.53
2023-02-11T05:33:45.224Z,103283.47
2023-02-11T05:36:13.962Z,103279.81
2023-02-11T05:38:42.637Z,103275.88
2023-02-11T05:41:10.408Z,103281.13
2023-02-11T05:43:37.042Z,103276.91
2023-02-11T05:46:04.776Z,103269.59
2023-02-11T05:48:31.830Z,103273.16
2023-02-11T05:50:58.492Z,103274.00
2023-02-11T05:53:25.316Z,103261.31
2023-02-11T05:55:52.107Z,103271.56
2023-02-11T05:58:18.853Z,103274.72
2023-02-11T06:00:45.387Z,103266.66
2023-02-11T06:03:12.012Z,103274.06
2023-02-11T06:05:38.900Z,103274.72
2023-02-11T06:08:05.571Z,103276.59
2023-02-11T06:10:32.140Z,103274.16
2023-02-11T06:12:58.634Z,103265.44
2023-02-11T06:15:25.257Z,103265.25
2023-02-11T06:17:52.173Z,103258.59
2023-02-11T06:20:19.383Z,103254.69
2023-02-11T06:22:46.280Z,103259.25
2023-02-11T06:25:13.882Z,103252.44
2023-02-11T06:27:40.442Z,103264.59
2023-02-11T06:30:08.149Z,103255.06
2023-02-11T06:32:50.067Z,103252.72
2023-02-11T06:35:16.828Z,103242.94
2023-02-11T06:37:43.506Z,103235.81
2023-02-11T06:40:11.529Z,103248.75
2023-02-11T06:42:41.059Z,103257.78
2023-02-11T06:45:10.833Z,103251.97
2023-02-11T06:47:38.000Z,103254.59
2023-02-11T06:50:05.163Z,103254.19
2023-02-11T06:52:32.711Z,103248.09
2023-02-11T06:54:59.323Z,103244.66
2023-02-11T06:57:25.921Z,103247.09
2023-02-11T06:59:52.434Z,103248.28
2023-02-11T07:02:20.911Z,103249.44
2023-02-11T07:04:47.847Z,103254.59
2023-02-11T07:07:14.494Z,103248.88
2023-02-11T07:09:41.103Z,103260.03
2023-02-11T07:12:10.336Z,103260.13
2023-02-11T07:14:36.907Z,103273.16
2023-02-11T07:17:04.828Z,103294.72
2023-02-11T07:19:31.804Z,103290.19
2023-02-11T07:21:58.342Z,103299.31
2023-02-11T07:24:25.150Z,103304.19
2023-02-11T07:26:52.953Z,103304.69
2023-02-11T07:29:19.438Z,103302.31
2023-02-11T07:31:46.062Z,103305.41
2023-02-11T07:34:12.731Z,103294.63
2023-02-11T07:36:39.447Z,103300.63
2023-02-11T07:39:05.979Z,103310.94
2023-02-11T07:41:32.543Z,103314.22
2023-02-11T07:43:59.044Z,103311.34
2023-02-11T07:46:27.799Z,103315.44
2023-02-11T07:48:55.028Z,103315.25
2023-02-11T07:51:24.481Z,103316.66
2023-02-11T07:53:52.154Z,103315.72
2023-02-11T07:56:20.184Z,103317.03
2023-02-11T07:58:47.215Z,103320.41
2023-02-11T08:01:24.967Z,103314.97
2023-02-11T08:03:51.972Z,103319.09
2023-02-11T08:06:20.669Z,103328.47
2023-02-11T08:08:47.607Z,103340.69
2023-02-11T08:11:20.427Z,103328.25
2023-02-11T08:13:47.195Z,103334.16
2023-02-11T08:16:21.459Z,103335.78
2023-02-11T08:18:49.207Z,103345.06
2023-02-11T08:21:15.823Z,103354.44
2023-02-11T08:23:43.832Z,103351.50
2023-02-11T08:26:13.802Z,103351.22
2023-02-11T08:28:41.970Z,103352.53
2023-02-11T08:31:11.240Z,103360.91
2023-02-11T08:33:40.324Z,103360.50
2023-02-11T08:36:29.782Z,103365.16
2023-02-11T08:39:12.126Z,103366.19
2023-02-11T08:41:43.026Z,103358.41
2023-02-11T08:44:09.723Z,103362.03
2023-02-11T08:46:36.272Z,103358.16
2023-02-11T08:49:02.800Z,103366.38
2023-02-11T08:51:33.065Z,103368.47
2023-02-11T08:54:00.486Z,103378.31
2023-02-11T08:56:27.715Z,103385.91
2023-02-11T08:58:55.008Z,103380.94
2023-02-11T09:01:27.728Z,103382.13
2023-02-11T09:03:55.251Z,103393.28
2023-02-11T09:06:26.067Z,103393.72
2023-02-11T09:08:54.925Z,103390.78
2023-02-11T09:11:27.774Z,103394.66
2023-02-11T09:13:54.691Z,103394.25
2023-02-11T09:16:23.953Z,103393.72
2023-02-11T09:18:51.037Z,103387.94
2023-02-11T09:21:19.149Z,103400.44
2023-02-11T09:23:47.849Z,103394.97
2023-02-11T09:26:18.787Z,103392.31
2023-02-11T09:28:45.606Z,103391.06
2023-02-11T09:31:18.870Z,103392.84
2023-02-11T09:33:48.061Z,103393.69
2023-02-11T09:36:25.648Z,103396.00
2023-02-11T09:38:53.532Z,103391.22
2023-02-11T09:41:35.460Z,103402.59
2023-02-11T09:44:05.967Z,103409.38
2023-02-11T09:46:36.567Z,103407.88
2023-02-11T09:49:05.062Z,103415.50
2023-02-11T09:51:44.871Z,103430.97
2023-02-11T09:54:18.504Z,103425.06
2023-02-11T09:56:45.040Z,103431.31
2023-02-11T09:59:16.086Z,103442.69
2023-02-11T10:02:05.209Z,103441.53
2023-02-11T10:05:03.776Z,103451.13
2023-02-11T10:07:46.462Z,103448.41
2023-02-11T10:10:31.506Z,103455.78
2023-02-11T10:13:12.660Z,103458.59
2023-02-11T10:15:57.619Z,103458.28
2023-02-11T10:18:30.007Z,103466.50
2023-02-11T10:21:32.785Z,103464.25
2023-02-11T10:24:03.476Z,103473.44
2023-02-11T10:26:33.236Z,103470.69
2023-02-11T10:29:05.579Z,103475.97
2023-02-11T10:31:42.428Z,103479.44
2023-02-11T10:34:14.835Z,103483.91
2023-02-11T10:36:43.634Z,103490.97
2023-02-11T10:39:15.288Z,103501.31
2023-02-11T10:41:52.390Z,103500.47
2023-02-11T10:44:27.795Z,103504.81
2023-02-11T10:46:56.359Z,103505.84
2023-02-11T10:49:46.336Z,103514.09
2023-02-11T10:52:24.977Z,103515.19
2023-02-11T10:55:09.871Z,103516.94
2023-02-11T10:57:44.552Z,103519.69
2023-02-11T11:00:26.350Z,103526.00
2023-02-11T11:02:57.369Z,103517.84
2023-02-11T11:05:30.476Z,103513.69
2023-02-11T11:08:00.008Z,103512.75
2023-02-11T11:10:47.097Z,103514.28
2023-02-11T11:13:25.673Z,103516.28
2023-02-11T11:16:14.345Z,103522.00
2023-02-11T11:18:46.040Z,103517.81
2023-02-11T11:21:14.491Z,103516.22
2023-02-11T11:23:47.997Z,103521.59
2023-02-11T11:26:16.890Z,103522.16
2023-02-11T11:28:51.210Z,103517.97
2023-02-11T11:31:22.893Z,103517.56
2023-02-11T11:33:52.163Z,103523.59
2023-02-11T11:36:25.712Z,103536.81
2023-02-11T11:38:57.509Z,103537.63
2023-02-11T11:41:28.357Z,103538.84
2023-02-11T11:44:01.961Z,103538.34
2023-02-11T11:46:35.451Z,103538.75
2023-02-11T11:49:22.209Z,103542.25
2023-02-11T11:52:14.849Z,103528.31
2023-02-11T11:54:46.285Z,103537.94
2023-02-11T11:57:17.807Z,103537.38
2023-02-11T11:59:44.756Z,103538.72
2023-02-11T12:02:35.469Z,103544.03
2023-02-11T12:05:13.760Z,103547.38
2023-02-11T12:07:55.668Z,103541.25
2023-02-11T12:10:42.646Z,103542.84
2023-02-11T12:13:28.246Z,103547.91
2023-02-11T12:16:03.568Z,103558.47
2023-02-11T12:18:59.377Z,103556.56
2023-02-11T12:21:33.543Z,103556.94
2023-02-11T12:24:18.184Z,103560.31
2023-02-11T12:26:53.312Z,103567.28
2023-02-11T12:29:19.775Z,103585.06
2023-02-11T12:32:04.540Z,103588.69
2023-02-11T12:34:55.113Z,103592.16
2023-02-11T12:37:27.941Z,103594.59
2023-02-11T12:40:17.706Z,103589.88
2023-02-11T12:43:08.785Z,103589.31
2023-02-11T12:45:55.504Z,103600.81
2023-02-11T12:48:42.224Z,103582.28
2023-02-11T12:51:34.765Z,103599.28
2023-02-11T12:54:07.363Z,103609.75
2023-02-11T12:57:02.120Z,103606.38
2023-02-11T12:59:39.328Z,103603.41
2023-02-11T13:02:18.898Z,103612.06
2023-02-11T13:04:52.594Z,103615.19
2023-02-11T13:07:29.245Z,103604.97
2023-02-11T13:10:07.681Z,103606.19
2023-02-11T13:12:56.077Z,103600.78
2023-02-11T13:15:23.916Z,103607.66
2023-02-11T13:18:01.134Z,103606.81
2023-02-11T13:20:44.238Z,103599.72
2023-02-11T13:23:17.470Z,103601.50
2023-02-11T13:25:51.629Z,103580.22
2023-02-11T13:28:30.656Z,103596.34
2023-02-11T13:31:03.067Z,103596.59
2023-02-11T13:33:39.519Z,103592.34
2023-02-11T13:36:05.993Z,103590.31
2023-02-11T13:38:33.589Z,103582.38
2023-02-11T13:41:00.109Z,103583.47
2023-02-11T13:43:33.463Z,103574.56
2023-02-11T13:46:11.794Z,103576.63
2023-02-11T13:48:46.128Z,103579.16
2023-02-11T13:51:16.405Z,103584.22
2023-02-11T13:53:56.179Z,103586.88
2023-02-11T13:56:36.819Z,103589.03
2023-02-11T13:59:26.408Z,103593.63
2023-02-11T14:02:39.042Z,103590.13
2023-02-11T14:05:23.997Z,103595.88
2023-02-11T14:08:36.327Z,103593.47
2023-02-11T14:11:25.271Z,103599.81
2023-02-11T14:13:51.711Z,103611.38
2023-02-11T14:16:37.024Z,103597.16
2023-02-11T14:19:06.404Z,103597.63
2023-02-11T14:21:38.768Z,103588.56
2023-02-11T14:24:07.055Z,103594.31
2023-02-11T14:26:41.325Z,103577.78
2023-02-11T14:29:31.558Z,103582.69
2023-02-11T14:32:07.202Z,103585.34
2023-02-11T14:34:49.098Z,103579.16
2023-02-11T14:37:26.978Z,103581.56
2023-02-11T14:40:19.438Z,103578.59
2023-02-11T14:42:46.128Z,103580.50
2023-02-11T14:45:20.982Z,103584.09
2023-02-11T14:48:08.960Z,103585.44
2023-02-11T14:50:49.732Z,103590.75
2023-02-11T14:53:19.575Z,103590.75
2023-02-11T14:55:50.867Z,103532.31
2023-02-11T14:58:23.384Z,103522.78
2023-02-11T15:00:51.165Z,103538.88
2023-02-11T15:03:27.168Z,103548.00
2023-02-11T15:06:15.094Z,103550.03
2023-02-11T15:08:45.821Z,103556.88
2023-02-11T15:11:15.663Z,103564.81
2023-02-11T15:13:47.605Z,103571.19
2023-02-11T15:16:19.417Z,103569.34
2023-02-11T15:18:51.747Z,103581.63
2023-02-11T15:21:24.510Z,103587.03
2023-02-11T15:24:01.561Z,103585.22
2023-02-11T15:26:28.880Z,103573.19
2023-02-11T15:28:56.065Z,103590.63
2023-02-11T15:31:25.789Z,103585.34
2023-02-11T15:33:53.408Z,103582.81
2023-02-11T15:36:28.693Z,103588.94
2023-02-11T15:39:31.390Z,103588.31
2023-02-11T15:42:50.666Z,103595.84
2023-02-11T15:45:25.946Z,103599.78
2023-02-11T15:47:54.762Z,103597.47
2023-02-11T15:50:31.940Z,103588.41
2023-02-11T15:53:03.158Z,103586.31
2023-02-11T15:55:30.300Z,103583.88
2023-02-11T15:58:05.067Z,103584.66
2023-02-11T16:00:36.737Z,103589.94
2023-02-11T16:03:03.531Z,103585.19
2023-02-11T16:05:35.580Z,103592.81
2023-02-11T16:08:24.528Z,103596.72
2023-02-11T16:11:02.487Z,103599.47
2023-02-11T16:13:34.974Z,103595.31
2023-02-11T16:16:04.747Z,103606.09
2023-02-11T16:18:39.856Z,103604.59
2023-02-11T16:21:18.048Z,103609.28
2023-02-11T16:23:53.043Z,103601.66
2023-02-11T16:26:36.611Z,103601.75
2023-02-11T16:29:10.841Z,103609.16
2023-02-11T16:31:40.504Z,103602.53
2023-02-11T16:34:15.919Z,103607.06
2023-02-11T16:36:42.794Z,103613.50
2023-02-11T16:39:10.993Z,103612.75
2023-02-11T16:41:37.511Z,103614.97
2023-02-11T16:44:04.124Z,103618.78
2023-02-11T16:46:31.517Z,103618.97
2023-02-11T16:49:09.416Z,103619.91
2023-02-11T16:51:39.923Z,103615.81
2023-02-11T16:54:06.457Z,103618.53
2023-02-11T16:56:32.985Z,103618.84
2023-02-11T16:58:59.559Z,103628.47
2023-02-11T17:01:26.262Z,103628.66
2023-02-11T17:03:54.008Z,103634.78
2023-02-11T17:06:20.496Z,103635.00
2023-02-11T17:08:46.974Z,103628.22
2023-02-11T17:11:16.735Z,103637.94
2023-02-11T17:13:44.096Z,103635.31
2023-02-11T17:16:17.935Z,103628.44
2023-02-11T17:18:45.034Z,103624.41
2023-02-11T17:21:11.592Z,103634.84
2023-02-11T17:23:38.736Z,103629.78
2023-02-11T17:26:05.842Z,103630.94
2023-02-11T17:28:32.672Z,103622.06
2023-02-11T17:31:00.360Z,103637.78
2023-02-11T17:33:27.132Z,103638.69
2023-02-11T17:35:55.703Z,103634.59
2023-02-11T17:38:22.254Z,103628.88
2023-02-11T17:40:57.304Z,103641.59
2023-02-11T17:43:23.805Z,103641.78
2023-02-11T17:45:50.748Z,103635.13
2023-02-11T17:48:17.584Z,103642.09
2023-02-11T17:50:44.311Z,103649.13
2023-02-11T17:53:10.872Z,103644.06
2023-02-11T17:55:38.586Z,103655.47
2023-02-11T17:58:05.101Z,103646.81
2023-02-11T18:00:31.603Z,103659.97
2023-02-11T18:03:02.763Z,103648.41
2023-02-11T18:05:34.858Z,103645.88
2023-02-11T18:08:01.518Z,103651.31
2023-02-11T18:10:28.101Z,103663.69
2023-02-11T18:12:56.858Z,103663.84
2023-02-11T18:15:23.512Z,103656.34
2023-02-11T18:17:50.232Z,103650.41
2023-02-11T18:20:16.992Z,103646.41
2023-02-11T18:22:44.353Z,103653.06
2023-02-11T18:25:15.241Z,103668.94
2023-02-11T18:27:41.937Z,103663.84
2023-02-11T18:30:14.168Z,103665.66
2023-02-11T18:32:40.758Z,103668.41
2023-02-11T18:35:14.847Z,103671.31
2023-02-11T18:37:42.575Z,103676.66
2023-02-11T18:40:10.803Z,103673.22
2023-02-11T18:42:38.046Z,103670.28
2023-02-11T18:45:11.797Z,103665.66
2023-02-11T18:47:39.348Z,103673.78
2023-02-11T18:50:08.290Z,103670.47
2023-02-11T18:52:38.509Z,103661.72
2023-02-11T18:55:09.164Z,103668.03
2023-02-11T18:57:35.690Z,103666.53
2023-02-11T19:00:02.304Z,103668.50
2023-02-11T19:02:29.382Z,103670.22
2023-02-11T19:04:55.897Z,103674.81
2023-02-11T19:07:22.435Z,103674.06
2023-02-11T19:09:49.099Z,103664.41
2023-02-11T19:12:15.665Z,103669.75
2023-02-11T19:14:42.304Z,103670.78
2023-02-11T19:17:11.835Z,103670.97
2023-02-11T19:19:38.503Z,103678.69
2023-02-11T19:22:10.525Z,103681.31
2023-02-11T19:24:37.981Z,103688.28
2023-02-11T19:27:05.450Z,103690.16
2023-02-11T19:29:35.088Z,103695.25
2023-02-11T19:32:06.303Z,103685.09
2023-02-11T19:34:33.286Z,103682.06
2023-02-11T19:37:01.619Z,103689.03
2023-02-11T19:39:28.306Z,103701.16
2023-02-11T19:41:54.876Z,103697.41
2023-02-11T19:44:21.580Z,103695.03
2023-02-11T19:46:50.242Z,103708.97
2023-02-11T19:49:22.802Z,103719.41
2023-02-11T19:51:50.733Z,103723.09
2023-02-11T19:54:17.338Z,103710.09
2023-02-11T19:56:45.310Z,103719.91
2023-02-11T19:59:13.813Z,103727.69
2023-02-11T20:01:41.112Z,103731.25
2023-02-11T20:04:08.528Z,103735.69
2023-02-11T20:06:35.455Z,103741.69
2023-02-11T20:09:06.107Z,103748.66
2023-02-11T20:11:33.656Z,103746.91
2023-02-11T20:14:00.888Z,103735.88
2023-02-11T20:16:46.179Z,103764.28
2023-02-11T20:19:17.856Z,103739.81
2023-02-11T20:21:47.056Z,103772.19
2023-02-11T20:24:14.535Z,103772.28
2023-02-11T20:26:42.532Z,103781.75
2023-02-11T20:29:09.889Z,103771.72
2023-02-11T20:31:37.039Z,103785.53
2023-02-11T20:34:03.803Z,103792.28
2023-02-11T20:36:34.121Z,103793.16
2023-02-11T20:39:01.825Z,103808.28
2023-02-11T20:41:34.267Z,103817.03
2023-02-11T20:44:03.670Z,103822.41
2023-02-11T20:46:33.071Z,103823.31
2023-02-11T20:49:00.613Z,103813.84
2023-02-11T20:51:29.832Z,103821.75
2023-02-11T20:53:56.833Z,103817.44
2023-02-11T20:56:29.778Z,103812.41
2023-02-11T20:59:01.067Z,103829.75
2023-02-11T21:01:43.895Z,103829.84
2023-02-11T21:04:17.105Z,103832.38
2023-02-11T21:06:47.326Z,103835.00
2023-02-11T21:09:17.388Z,103840.47
2023-02-11T21:11:43.980Z,103841.84
2023-02-11T21:14:12.030Z,103850.53
2023-02-11T21:16:39.763Z,103858.34
2023-02-11T21:19:07.023Z,103853.91
2023-02-11T21:21:36.663Z,103853.16
2023-02-11T21:24:04.195Z,103854.09
2023-02-11T21:26:30.904Z,103857.56
2023-02-11T21:28:57.464Z,103855.88
2023-02-11T21:31:29.691Z,103862.00
2023-02-11T21:33:59.433Z,103868.97
2023-02-11T21:36:27.873Z,103874.13
2023-02-11T21:38:54.382Z,103882.91
2023-02-11T21:41:22.612Z,103880.34
2023-02-11T21:43:50.472Z,103881.28
2023-02-11T21:46:18.124Z,103887.13
2023-02-11T21:48:44.744Z,103898.91
2023-02-11T21:51:20.900Z,103904.00
2023-02-11T21:53:47.483Z,103913.31
2023-02-11T21:56:18.521Z,103915.78
2023-02-11T21:58:45.860Z,103912.56
2023-02-11T22:01:15.303Z,103913.50
2023-02-11T22:03:42.563Z,103937.03
2023-02-11T22:06:11.648Z,103935.34
2023-02-11T22:08:38.438Z,103919.34
2023-02-11T22:11:07.671Z,103934.16
2023-02-11T22:13:34.596Z,103927.25
2023-02-11T22:16:04.183Z,103926.50
2023-02-11T22:18:30.870Z,103923.84
2023-02-11T22:21:02.857Z,103926.41
2023-02-11T22:23:30.351Z,103926.41
2023-02-11T22:25:57.694Z,103936.84
2023-02-11T22:28:26.059Z,103920.97
2023-02-11T22:30:57.057Z,103935.38
2023-02-11T22:33:25.078Z,103939.53
2023-02-11T22:36:07.178Z,103938.66
2023-02-11T22:38:34.981Z,103947.06
2023-02-11T22:41:06.716Z,103961.09
2023-02-11T22:43:33.569Z,103949.69
2023-02-11T22:46:01.953Z,103956.88
2023-02-11T22:48:28.631Z,103957.59
2023-02-11T22:50:55.377Z,103951.19
2023-02-11T22:53:25.467Z,103951.19
2023-02-11T22:55:52.163Z,103952.31
2023-02-11T22:58:18.887Z,103956.44
2023-02-11T23:00:45.508Z,103948.06
2023-02-11T23:03:12.842Z,103955.22
2023-02-11T23:05:40.718Z,103946.66
2023-02-11T23:08:11.528Z,103950.31
2023-02-11T23:10:39.731Z,103953.97
2023-02-11T23:13:07.761Z,103957.28
2023-02-11T23:15:34.424Z,103962.28
2023-02-11T23:18:00.998Z,103958.78
2023-02-11T23:20:27.607Z,103967.44
2023-02-11T23:22:54.161Z,103974.41
2023-02-11T23:25:20.685Z,103970.56
2023-02-11T23:27:47.207Z,103965.13
2023-02-11T23:30:14.304Z,103973.78
2023-02-11T23:32:40.935Z,103973.59
2023-02-11T23:35:07.742Z,103976.34
2023-02-11T23:37:34.402Z,103977.38
2023-02-11T23:40:00.927Z,103966.16
2023-02-11T23:42:28.770Z,103964.72
2023-02-11T23:44:55.346Z,103965.84
2023-02-11T23:47:21.868Z,103963.56
2023-02-11T23:49:48.420Z,103969.09
2023-02-11T23:52:15.115Z,103962.22
2023-02-11T23:54:43.338Z,103968.44
2023-02-11T23:57:09.884Z,103961.53
2023-02-11T23:59:36.352Z,103959.84
